createdAt,value
2018-08-16T00:03:06.886Z,4.20
2018-08-16T00:08:00.016Z,4.10
2018-08-16T00:12:53.337Z,4.80
2018-08-16T00:17:46.484Z,4.55
2018-08-16T00:22:39.760Z,4.20
2018-08-16T00:27:32.809Z,4.28
2018-08-16T00:32:25.931Z,4.30
2018-08-16T00:37:19.114Z,4.12
2018-08-16T00:42:12.173Z,4.22
2018-08-16T00:47:05.343Z,4.35
2018-08-16T00:51:58.436Z,4.00
2018-08-16T00:56:51.567Z,4.00
2018-08-16T01:01:44.618Z,4.10
2018-08-16T01:06:37.597Z,4.30
2018-08-16T01:11:30.755Z,3.90
2018-08-16T01:16:23.735Z,4.20
2018-08-16T01:21:16.906Z,3.87
2018-08-16T01:26:09.981Z,3.70
2018-08-16T01:31:03.167Z,3.85
2018-08-16T01:35:56.339Z,4.10
2018-08-16T01:40:49.351Z,3.87
2018-08-16T01:45:42.461Z,4.17
2018-08-16T01:50:35.519Z,3.95
2018-08-16T01:55:28.440Z,4.20
2018-08-16T02:00:21.452Z,3.92
2018-08-16T02:05:14.539Z,3.60
2018-08-16T02:10:08.087Z,4.22
2018-08-16T02:15:01.211Z,4.40
2018-08-16T02:19:54.214Z,3.92
2018-08-16T02:24:47.212Z,4.17
2018-08-16T02:29:40.188Z,4.20
2018-08-16T02:34:33.306Z,3.90
2018-08-16T02:39:26.289Z,3.33
2018-08-16T02:44:19.306Z,3.67
2018-08-16T02:49:12.390Z,3.60
2018-08-16T02:54:05.522Z,3.30
2018-08-16T02:58:58.805Z,3.40
2018-08-16T03:03:51.754Z,3.70
2018-08-16T03:08:44.722Z,3.52
2018-08-16T03:13:37.910Z,3.47
2018-08-16T03:18:30.953Z,4.03
2018-08-16T03:23:24.088Z,3.60
2018-08-16T03:28:17.054Z,3.42
2018-08-16T03:33:10.317Z,3.30
2018-08-16T03:38:03.434Z,3.60
2018-08-16T03:42:57.491Z,3.40
2018-08-16T03:47:50.627Z,3.30
2018-08-16T03:52:43.588Z,3.35
2018-08-16T03:57:36.675Z,3.35
2018-08-16T04:02:29.838Z,3.30
2018-08-16T04:07:22.941Z,3.62
2018-08-16T04:12:15.854Z,3.50
2018-08-16T04:17:08.956Z,3.33
2018-08-16T04:22:02.230Z,3.15
2018-08-16T04:26:55.174Z,3.47
2018-08-16T04:31:48.140Z,3.10
2018-08-16T04:36:42.116Z,3.77
2018-08-16T04:41:35.283Z,3.10
2018-08-16T04:46:28.307Z,3.25
2018-08-16T04:51:21.257Z,2.77
2018-08-16T04:56:14.378Z,3.40
2018-08-16T05:01:07.617Z,3.65
2018-08-16T05:06:00.683Z,3.22
2018-08-16T05:10:53.618Z,3.80
2018-08-16T05:15:46.628Z,3.83
2018-08-16T05:20:39.788Z,3.62
2018-08-16T05:25:32.727Z,3.70
2018-08-16T05:30:25.828Z,3.80
2018-08-16T06:12:52.155Z,4.22
2018-08-16T06:17:45.378Z,4.00
2018-08-16T06:22:39.037Z,4.50
2018-08-16T06:27:31.992Z,4.55
2018-08-16T06:32:24.973Z,4.42
2018-08-16T06:37:18.080Z,4.10
2018-08-16T06:42:11.133Z,4.40
2018-08-16T06:47:04.244Z,4.30
2018-08-16T06:51:57.396Z,3.80
2018-08-16T06:56:50.417Z,4.20
2018-08-16T07:01:43.542Z,4.53
2018-08-16T07:06:36.752Z,4.37
2018-08-16T07:11:29.704Z,4.25
2018-08-16T07:16:23.110Z,4.10
2018-08-16T07:21:16.136Z,4.20
2018-08-16T07:26:09.168Z,4.10
2018-08-16T07:31:02.428Z,4.08
2018-08-16T07:35:56.554Z,4.50
2018-08-16T07:40:49.623Z,3.70
2018-08-16T07:45:43.079Z,4.80
2018-08-16T07:50:35.962Z,4.53
2018-08-16T07:55:29.090Z,4.35
2018-08-16T08:00:22.171Z,4.62
2018-08-16T08:05:15.126Z,4.40
2018-08-16T08:10:08.918Z,4.72
2018-08-16T08:15:01.947Z,4.10
2018-08-16T08:19:55.038Z,4.53
2018-08-16T08:24:48.026Z,3.90
2018-08-16T08:29:41.382Z,4.12
2018-08-16T08:34:34.320Z,4.00
2018-08-16T08:39:27.425Z,4.20
2018-08-16T08:44:23.423Z,4.58
2018-08-16T08:49:16.641Z,4.40
2018-08-16T08:54:20.716Z,4.87
2018-08-16T08:59:13.700Z,5.03
2018-08-16T09:04:06.831Z,3.95
2018-08-16T09:08:59.860Z,4.83
2018-08-16T09:14:05.205Z,4.78
2018-08-16T09:18:58.562Z,4.45
2018-08-16T09:23:51.518Z,4.55
2018-08-16T09:28:44.518Z,4.85
2018-08-16T09:33:48.518Z,4.42
2018-08-16T09:38:42.552Z,5.08
2018-08-16T09:43:47.179Z,4.65
2018-08-16T09:48:43.558Z,5.10
2018-08-16T09:53:36.632Z,4.78
2018-08-16T09:58:29.714Z,5.03
2018-08-16T10:03:22.662Z,5.17
2018-08-16T10:08:15.647Z,5.30
2018-08-16T10:13:08.629Z,4.92
2018-08-16T10:18:01.584Z,4.67
2018-08-16T10:22:54.527Z,4.70
2018-08-16T10:27:47.594Z,4.45
2018-08-16T10:32:40.515Z,5.00
2018-08-16T10:37:33.579Z,4.55
2018-08-16T10:42:39.730Z,4.67
2018-08-16T10:47:32.771Z,4.60
2018-08-16T10:52:25.843Z,4.85
2018-08-16T10:57:19.046Z,4.60
2018-08-16T11:02:12.098Z,3.98
2018-08-16T11:07:05.206Z,4.25
2018-08-16T11:11:58.183Z,4.65
2018-08-16T11:16:51.308Z,3.92
2018-08-16T11:21:44.348Z,4.03
2018-08-16T11:26:37.482Z,3.80
2018-08-16T11:31:30.450Z,3.87
2018-08-16T11:36:23.586Z,3.20
2018-08-16T11:41:16.745Z,3.70
2018-08-16T11:46:09.730Z,3.50
2018-08-16T11:51:02.657Z,3.60
2018-08-16T11:55:55.679Z,3.67
2018-08-16T12:00:49.252Z,3.33
2018-08-16T12:05:42.258Z,3.77
2018-08-16T12:10:35.336Z,3.45
2018-08-16T12:15:28.392Z,3.35
2018-08-16T12:20:21.738Z,3.47
2018-08-16T12:25:14.803Z,3.05
2018-08-16T12:30:09.069Z,3.80
2018-08-16T12:35:02.238Z,3.37
2018-08-16T12:39:55.220Z,3.40
2018-08-16T12:44:48.408Z,3.92
2018-08-16T12:49:41.638Z,3.40
2018-08-16T12:54:34.727Z,3.60
2018-08-16T12:59:28.041Z,3.25
2018-08-16T13:04:21.023Z,3.70
2018-08-16T13:09:14.512Z,3.77
2018-08-16T13:14:08.256Z,3.70
2018-08-16T13:19:01.482Z,4.08
2018-08-16T13:23:54.820Z,3.65
2018-08-16T13:28:48.296Z,3.60
2018-08-16T13:33:41.921Z,3.77
2018-08-16T13:38:35.197Z,3.90
2018-08-16T13:43:28.190Z,3.90
2018-08-16T13:48:21.968Z,3.90
2018-08-16T13:53:15.313Z,3.95
2018-08-16T13:58:09.527Z,3.67
2018-08-16T14:03:02.811Z,3.52
2018-08-16T14:07:57.618Z,3.87
2018-08-16T14:12:50.722Z,3.83
2018-08-16T14:17:43.835Z,4.08
2018-08-16T14:22:37.260Z,5.20
2018-08-16T14:27:30.302Z,4.30
2018-08-16T14:32:23.499Z,4.28
2018-08-16T14:37:16.651Z,3.90
2018-08-16T14:42:09.766Z,4.45
2018-08-16T14:47:05.306Z,4.60
2018-08-16T14:51:58.378Z,4.70
2018-08-16T14:56:51.487Z,4.35
2018-08-16T15:01:44.852Z,5.10
2018-08-16T15:06:39.190Z,4.50
2018-08-16T15:11:32.342Z,4.45
2018-08-16T15:16:27.697Z,4.62
2018-08-16T15:21:20.801Z,4.37
2018-08-16T15:26:27.144Z,5.45
2018-08-16T15:31:20.391Z,4.90
2018-08-16T15:36:18.999Z,4.40
2018-08-16T15:41:12.264Z,4.75
2018-08-16T15:46:15.265Z,4.80
2018-08-16T15:51:08.521Z,4.95
2018-08-16T15:56:01.671Z,5.17
2018-08-16T16:00:54.720Z,4.67
2018-08-16T16:05:49.134Z,4.75
2018-08-16T16:10:42.692Z,4.80
2018-08-16T16:15:36.077Z,4.62
2018-08-16T16:20:29.187Z,4.90
2018-08-16T16:25:22.313Z,4.47
2018-08-16T16:30:20.680Z,4.90
2018-08-16T16:35:13.992Z,4.92
2018-08-16T16:40:08.744Z,4.72
2018-08-16T16:45:02.126Z,4.90
2018-08-16T16:49:59.605Z,5.12
2018-08-16T16:54:53.019Z,4.90
2018-08-16T16:59:46.302Z,5.12
2018-08-16T17:04:39.444Z,5.37
2018-08-16T17:09:32.485Z,5.42
2018-08-16T17:14:25.650Z,5.30
2018-08-16T17:19:19.166Z,5.08
2018-08-16T17:24:12.251Z,4.87
2018-08-16T17:29:06.755Z,4.92
2018-08-16T17:33:59.945Z,5.12
2018-08-16T17:38:53.134Z,4.67
2018-08-16T17:43:46.237Z,5.70
2018-08-16T17:48:39.325Z,5.22
2018-08-16T17:53:32.646Z,5.37
2018-08-16T17:58:29.949Z,5.30
2018-08-16T18:03:22.996Z,5.20
2018-08-16T18:08:16.280Z,6.03
2018-08-16T18:13:09.721Z,6.15
2018-08-16T18:18:02.908Z,5.35
2018-08-16T18:22:56.070Z,5.58
2018-08-16T18:27:49.292Z,5.90
2018-08-16T18:32:43.191Z,5.55
2018-08-16T18:37:36.304Z,5.30
2018-08-16T18:42:29.589Z,5.40
2018-08-16T18:47:22.858Z,5.65
2018-08-16T18:52:15.920Z,4.87
2018-08-16T18:57:09.916Z,5.15
2018-08-16T19:02:03.925Z,5.62
2018-08-16T19:06:58.017Z,5.92
2018-08-16T19:11:51.090Z,4.92
2018-08-16T19:16:44.318Z,5.25
2018-08-16T19:21:37.393Z,4.80
2018-08-16T19:26:30.364Z,4.85
2018-08-16T19:31:23.728Z,4.85
2018-08-16T19:36:17.244Z,5.10
2018-08-16T19:41:10.388Z,5.25
2018-08-16T19:46:03.634Z,4.75
2018-08-16T19:50:56.699Z,5.10
2018-08-16T19:55:50.024Z,4.65
2018-08-16T20:00:43.107Z,4.85
2018-08-16T20:05:36.134Z,5.60
2018-08-16T20:10:29.199Z,5.12
2018-08-16T20:15:22.344Z,5.20
2018-08-16T20:20:15.332Z,5.03
2018-08-16T20:25:09.321Z,4.67
2018-08-16T20:30:02.486Z,5.05
2018-08-16T20:34:55.578Z,5.55
2018-08-16T20:39:48.523Z,4.90
2018-08-16T20:44:42.004Z,4.65
2018-08-16T20:49:35.054Z,6.20
2018-08-16T20:54:28.140Z,5.20
2018-08-16T20:59:21.154Z,4.37
2018-08-16T21:04:14.609Z,3.90
2018-08-16T21:09:08.921Z,3.77
2018-08-16T21:14:02.204Z,3.80
2018-08-16T21:18:55.815Z,3.75
2018-08-16T21:23:49.888Z,3.75
2018-08-16T21:28:43.878Z,3.77
2018-08-16T21:33:37.564Z,4.00
2018-08-16T21:38:31.271Z,3.60
2018-08-16T21:43:24.595Z,3.87
2018-08-16T21:48:18.126Z,4.50
2018-08-16T21:53:11.201Z,4.58
2018-08-16T21:58:04.146Z,4.90
2018-08-16T22:02:57.284Z,4.60
2018-08-16T22:08:08.842Z,4.08
2018-08-16T22:13:01.856Z,4.72
2018-08-16T22:17:54.893Z,4.30
2018-08-16T22:22:48.120Z,4.50
2018-08-16T22:27:41.053Z,4.80
2018-08-16T22:32:34.183Z,4.37
2018-08-16T22:37:27.174Z,4.60
2018-08-16T22:42:20.689Z,4.45
2018-08-16T22:47:13.690Z,4.70
2018-08-16T22:52:06.611Z,4.40
2018-08-16T22:56:59.810Z,4.87
2018-08-16T23:01:52.811Z,4.70
2018-08-16T23:06:45.807Z,4.40
2018-08-16T23:11:39.071Z,4.92
2018-08-16T23:16:32.122Z,5.00
2018-08-16T23:21:25.139Z,4.35
2018-08-16T23:26:18.193Z,4.33
2018-08-16T23:31:11.259Z,4.45
2018-08-16T23:36:04.394Z,3.95
2018-08-16T23:40:57.454Z,4.12
2018-08-16T23:45:50.569Z,4.17
2018-08-16T23:50:43.712Z,4.50
2018-08-16T23:55:38.073Z,4.12
